createdAt,value
2018-07-25T00:02:13.122Z,56.80
2018-07-25T00:04:43.523Z,57.00
2018-07-25T00:07:13.983Z,57.20
2018-07-25T00:09:44.402Z,57.47
2018-07-25T00:12:14.981Z,57.61
2018-07-25T00:14:45.359Z,58.16
2018-07-25T00:17:15.819Z,58.27
2018-07-25T00:19:46.220Z,58.16
2018-07-25T00:22:16.621Z,57.96
2018-07-25T00:24:47.195Z,58.26
2018-07-25T00:27:17.533Z,57.86
2018-07-25T00:29:47.874Z,57.06
2018-07-25T00:32:18.355Z,56.91
2018-07-25T00:34:48.737Z,56.95
2018-07-25T00:37:19.213Z,56.62
2018-07-25T00:39:49.797Z,57.44
2018-07-25T00:42:21.036Z,57.45
2018-07-25T00:44:51.413Z,57.79
2018-07-25T00:47:21.815Z,57.96
2018-07-25T00:49:52.413Z,57.97
2018-07-25T00:52:23.191Z,58.58
2018-07-25T00:54:53.550Z,57.62
2018-07-25T00:57:23.943Z,57.40
2018-07-25T00:59:54.423Z,58.17
2018-07-25T01:02:24.582Z,58.12
2018-07-25T01:04:55.014Z,58.99
2018-07-25T01:07:25.426Z,59.54
2018-07-25T01:09:55.818Z,59.10
2018-07-25T01:12:26.548Z,59.20
2018-07-25T01:14:57.307Z,59.17
2018-07-25T01:17:27.728Z,58.81
2018-07-25T01:19:58.123Z,59.42
2018-07-25T01:22:28.596Z,59.29
2018-07-25T01:24:58.961Z,59.43
2018-07-25T01:27:29.368Z,59.45
2018-07-25T01:30:00.061Z,59.11
2018-07-25T01:32:30.558Z,58.99
2018-07-25T01:35:00.976Z,59.07
2018-07-25T01:37:31.373Z,59.08
2018-07-25T01:40:01.831Z,58.92
2018-07-25T01:42:32.267Z,59.81
2018-07-25T01:45:02.920Z,59.39
2018-07-25T01:47:33.388Z,60.06
2018-07-25T01:50:03.827Z,60.37
2018-07-25T01:52:34.219Z,60.57
2018-07-25T01:55:05.819Z,60.81
2018-07-25T01:57:36.287Z,61.43
2018-07-25T02:00:07.096Z,60.90
2018-07-25T02:02:37.821Z,61.25
2018-07-25T02:05:08.240Z,62.23
2018-07-25T02:07:38.635Z,62.41
2018-07-25T02:10:09.087Z,62.87
2018-07-25T02:12:39.472Z,62.09
2018-07-25T02:15:09.876Z,61.88
2018-07-25T02:17:40.277Z,63.13
2018-07-25T02:20:11.018Z,63.68
2018-07-25T02:22:41.446Z,64.07
2018-07-25T02:25:11.854Z,64.19
2018-07-25T02:27:42.322Z,63.89
2018-07-25T02:30:12.735Z,64.34
2018-07-25T02:32:43.356Z,64.06
2018-07-25T02:35:13.732Z,64.60
2018-07-25T02:37:44.156Z,65.02
2018-07-25T02:40:14.611Z,65.01
2018-07-25T02:42:45.335Z,65.43
2018-07-25T02:45:15.846Z,64.74
2018-07-25T02:47:46.583Z,63.96
2018-07-25T02:50:16.930Z,63.70
2018-07-25T02:52:47.327Z,63.81
2018-07-25T02:55:18.158Z,64.42
2018-07-25T02:58:28.350Z,64.19
2018-07-25T03:00:58.752Z,64.53
2018-07-25T03:03:29.214Z,65.00
2018-07-25T03:05:59.983Z,64.53
2018-07-25T03:08:30.366Z,65.16
2018-07-25T03:11:00.986Z,65.24
2018-07-25T03:13:31.364Z,65.42
2018-07-25T03:16:04.806Z,65.35
2018-07-25T03:18:35.668Z,64.87
2018-07-25T03:21:06.340Z,64.42
2018-07-25T03:23:37.234Z,64.62
2018-07-25T03:26:07.656Z,65.17
2018-07-25T03:28:38.102Z,64.95
2018-07-25T03:31:08.819Z,65.14
2018-07-25T03:33:39.309Z,65.61
2018-07-25T03:36:10.075Z,65.70
2018-07-25T03:38:40.612Z,66.16
2018-07-25T03:41:11.040Z,65.63
2018-07-25T03:43:41.532Z,65.85
2018-07-25T03:46:11.988Z,65.94
2018-07-25T03:48:43.354Z,66.15
2018-07-25T03:51:13.767Z,66.40
2018-07-25T03:53:44.234Z,66.60
2018-07-25T03:56:14.581Z,66.96
2018-07-25T03:58:44.978Z,66.23
2018-07-25T04:01:15.534Z,66.71
2018-07-25T04:03:46.291Z,66.07
2018-07-25T04:06:16.714Z,66.50
2018-07-25T04:08:47.310Z,65.80
2018-07-25T04:11:17.713Z,66.66
2018-07-25T04:13:48.400Z,66.50
2018-07-25T04:16:18.765Z,66.33
2018-07-25T04:18:49.243Z,65.98
2018-07-25T04:21:19.669Z,65.63
2018-07-25T04:23:50.144Z,64.99
2018-07-25T04:26:20.675Z,64.84
2018-07-25T04:28:51.471Z,64.75
2018-07-25T04:31:21.901Z,64.46
2018-07-25T04:33:52.822Z,63.88
2018-07-25T04:36:23.163Z,63.97
2018-07-25T04:38:53.672Z,64.84
2018-07-25T04:41:24.055Z,64.37
2018-07-25T04:43:54.564Z,64.48
2018-07-25T04:46:25.177Z,63.22
2018-07-25T04:48:55.700Z,58.68
2018-07-25T04:51:26.068Z,53.47
2018-07-25T04:53:56.518Z,50.45
2018-07-25T04:56:26.944Z,47.41
2018-07-25T04:58:57.538Z,44.86
2018-07-25T05:01:27.978Z,43.66
2018-07-25T05:03:58.418Z,42.28
2018-07-25T05:06:28.638Z,41.51
2018-07-25T05:08:59.305Z,42.14
2018-07-25T05:11:29.390Z,43.31
2018-07-25T05:13:59.950Z,44.32
2018-07-25T05:16:30.404Z,44.06
2018-07-25T05:19:00.895Z,42.95
2018-07-25T05:21:31.212Z,40.94
2018-07-25T05:24:01.534Z,38.80
2018-07-25T05:26:31.838Z,37.32
2018-07-25T05:29:01.931Z,36.39
2018-07-25T05:31:32.015Z,35.83
2018-07-25T05:34:02.289Z,35.75
2018-07-25T05:36:32.017Z,35.91
2018-07-25T05:39:02.087Z,33.93
2018-07-25T05:41:32.138Z,31.94
2018-07-25T05:44:02.220Z,30.85
2018-07-25T05:46:32.327Z,30.17
2018-07-25T05:49:02.451Z,30.50
2018-07-25T05:51:32.709Z,30.92
2018-07-25T05:54:02.865Z,31.44
2018-07-25T05:56:32.978Z,30.57
2018-07-25T05:59:03.078Z,31.56
2018-07-25T06:01:33.169Z,31.05
2018-07-25T06:04:03.239Z,31.85
2018-07-25T06:06:33.295Z,31.89
2018-07-25T06:09:03.854Z,31.79
2018-07-25T06:11:33.599Z,33.75
2018-07-25T06:14:03.671Z,34.85
2018-07-25T06:16:33.747Z,37.97
2018-07-25T06:19:03.921Z,41.12
2018-07-25T06:21:34.333Z,44.73
2018-07-25T06:24:04.867Z,46.87
2018-07-25T06:26:35.204Z,48.91
2018-07-25T06:29:05.649Z,50.72
2018-07-25T06:31:36.352Z,49.95
2018-07-25T06:34:07.290Z,51.19
2018-07-25T06:36:38.238Z,50.38
2018-07-25T06:39:12.801Z,49.10
2018-07-25T06:41:43.141Z,47.41
2018-07-25T06:44:13.519Z,45.86
2018-07-25T06:46:43.925Z,44.81
2018-07-25T06:49:14.595Z,45.13
2018-07-25T06:51:44.949Z,44.56
2018-07-25T06:54:15.311Z,44.41
2018-07-25T06:56:45.696Z,43.64
2018-07-25T06:59:16.070Z,44.31
2018-07-25T07:01:46.429Z,43.92
2018-07-25T07:04:16.791Z,45.01
2018-07-25T07:06:47.264Z,44.09
2018-07-25T07:09:17.766Z,44.21
2018-07-25T07:11:48.131Z,44.07
2018-07-25T07:14:18.493Z,44.33
2018-07-25T07:16:49.588Z,43.60
2018-07-25T07:19:19.935Z,41.84
2018-07-25T07:21:50.327Z,44.33
2018-07-25T07:24:21.062Z,47.03
2018-07-25T07:26:51.442Z,47.36
2018-07-25T07:29:22.379Z,47.29
2018-07-25T07:31:52.760Z,46.04
2018-07-25T07:34:23.200Z,46.46
2018-07-25T07:36:53.536Z,46.17
2018-07-25T07:39:24.181Z,45.16
2018-07-25T07:41:54.521Z,43.76
2018-07-25T07:44:25.292Z,43.35
2018-07-25T07:46:55.715Z,43.88
2018-07-25T07:49:26.461Z,43.63
2018-07-25T07:51:56.798Z,43.54
2018-07-25T07:54:27.123Z,42.98
2018-07-25T07:56:57.481Z,43.42
2018-07-25T07:59:27.919Z,44.31
2018-07-25T08:01:58.493Z,43.19
2018-07-25T08:04:28.907Z,42.29
2018-07-25T08:06:59.339Z,41.01
2018-07-25T08:09:29.651Z,41.01
2018-07-25T08:12:00.012Z,40.95
2018-07-25T08:14:30.497Z,40.89
2018-07-25T08:17:01.632Z,40.93
2018-07-25T08:19:32.061Z,41.35
2018-07-25T08:22:02.752Z,42.05
2018-07-25T08:24:33.266Z,41.17
2018-07-25T08:27:03.726Z,40.07
2018-07-25T08:29:34.158Z,40.74
2018-07-25T08:32:04.609Z,40.36
2018-07-25T08:34:35.258Z,42.25
2018-07-25T08:37:06.292Z,42.80
2018-07-25T08:39:36.626Z,42.40
2018-07-25T08:42:07.230Z,41.99
2018-07-25T08:44:37.611Z,41.70
2018-07-25T08:47:08.066Z,41.12
2018-07-25T08:49:38.558Z,40.48
2018-07-25T08:52:08.975Z,39.27
2018-07-25T08:54:39.364Z,39.13
2018-07-25T08:57:09.445Z,38.74
2018-07-25T08:59:39.830Z,37.45
2018-07-25T09:02:10.598Z,38.11
2018-07-25T09:04:41.550Z,37.63
2018-07-25T09:07:12.117Z,38.79
2018-07-25T09:09:42.581Z,39.42
2018-07-25T09:12:13.081Z,39.08
2018-07-25T09:14:43.959Z,38.32
2018-07-25T09:17:14.286Z,37.76
2018-07-25T09:19:44.620Z,36.72
2018-07-25T09:22:15.827Z,34.30
2018-07-25T09:24:46.182Z,34.79
2018-07-25T09:27:16.545Z,38.16
2018-07-25T09:29:46.859Z,36.00
2018-07-25T09:32:16.952Z,35.98
2018-07-25T09:34:47.444Z,37.44
2018-07-25T09:37:18.366Z,36.27
2018-07-25T09:39:48.447Z,36.11
2018-07-25T09:42:18.935Z,33.69
2018-07-25T09:44:49.181Z,33.15
2018-07-25T09:47:19.466Z,34.75
2018-07-25T09:49:49.660Z,35.05
2018-07-25T09:52:19.901Z,34.47
2018-07-25T09:54:50.175Z,31.25
2018-07-25T09:57:20.407Z,30.32
2018-07-25T09:59:51.059Z,31.38
2018-07-25T10:02:21.484Z,31.45
2018-07-25T10:04:51.856Z,31.19
2018-07-25T10:07:22.117Z,29.86
2018-07-25T10:09:52.738Z,28.48
2018-07-25T10:12:23.004Z,26.77
2018-07-25T10:14:53.665Z,25.44
2018-07-25T10:17:24.037Z,26.14
2018-07-25T10:19:54.371Z,27.45
2018-07-25T10:22:24.704Z,27.88
2018-07-25T10:24:55.049Z,29.34
2018-07-25T10:27:25.499Z,29.46
2018-07-25T10:29:56.059Z,27.87
2018-07-25T10:32:26.327Z,27.53
2018-07-25T10:34:56.415Z,28.09
2018-07-25T10:37:26.890Z,28.99
2018-07-25T10:39:57.341Z,28.30
2018-07-25T10:42:27.727Z,28.21
2018-07-25T10:44:57.969Z,25.75
2018-07-25T10:47:28.513Z,27.00
2018-07-25T10:49:58.587Z,28.27
2018-07-25T10:52:28.674Z,28.30
2018-07-25T10:54:58.910Z,28.00
2018-07-25T10:57:28.982Z,28.87
2018-07-25T10:59:59.578Z,29.76
2018-07-25T11:02:29.869Z,29.48
2018-07-25T11:05:01.083Z,30.64
2018-07-25T11:07:31.508Z,30.85
2018-07-25T11:10:01.763Z,31.65
2018-07-25T11:12:31.817Z,29.60
2018-07-25T11:15:01.940Z,28.88
2018-07-25T11:17:32.299Z,30.71
2018-07-25T11:20:03.031Z,30.56
2018-07-25T11:22:33.801Z,29.71
2018-07-25T11:25:04.187Z,24.64
2018-07-25T11:27:34.403Z,27.31
2018-07-25T11:30:05.171Z,26.91
2018-07-25T11:32:35.547Z,27.04
2018-07-25T11:35:05.964Z,26.55
2018-07-25T11:37:35.969Z,25.77
2018-07-25T11:40:06.933Z,25.74
2018-07-25T11:42:37.295Z,26.39
2018-07-25T11:45:07.485Z,25.72
2018-07-25T11:47:37.541Z,25.63
2018-07-25T11:50:07.720Z,26.04
2018-07-25T11:52:37.950Z,25.59
2018-07-25T11:55:08.079Z,26.13
2018-07-25T11:57:38.100Z,25.17
2018-07-25T12:00:08.935Z,25.13
2018-07-25T12:02:38.986Z,24.87
2018-07-25T12:05:09.080Z,25.35
2018-07-25T12:07:39.253Z,24.45
2018-07-25T12:10:09.804Z,25.50
2018-07-25T12:12:40.093Z,25.87
2018-07-25T12:15:10.769Z,25.41
2018-07-25T12:17:41.136Z,25.62
2018-07-25T12:20:11.598Z,24.43
2018-07-25T12:22:41.852Z,24.90
2018-07-25T12:25:12.126Z,23.67
2018-07-25T12:27:42.371Z,22.84
2018-07-25T12:30:12.661Z,23.54
2018-07-25T12:32:42.943Z,23.97
2018-07-25T12:35:13.259Z,24.52
2018-07-25T12:37:43.627Z,23.64
2018-07-25T12:40:14.243Z,22.87
2018-07-25T12:42:44.910Z,23.70
2018-07-25T12:45:15.519Z,23.25
2018-07-25T12:47:45.845Z,24.17
2018-07-25T12:50:16.081Z,23.68
2018-07-25T12:52:46.316Z,23.66
2018-07-25T12:55:16.625Z,23.99
2018-07-25T12:57:46.887Z,23.45
2018-07-25T13:00:17.163Z,24.56
2018-07-25T13:02:47.521Z,25.31
2018-07-25T13:05:17.721Z,24.12
2018-07-25T13:07:47.976Z,24.75
2018-07-25T13:10:18.281Z,25.58
2018-07-25T13:12:48.508Z,25.22
2018-07-25T13:15:18.710Z,24.84
2018-07-25T13:17:48.973Z,25.52
2018-07-25T13:20:19.505Z,25.02
2018-07-25T13:22:50.532Z,25.47
2018-07-25T13:25:20.735Z,26.40
2018-07-25T13:27:51.250Z,26.62
2018-07-25T13:30:21.695Z,25.72
2018-07-25T13:32:52.561Z,25.26
2018-07-25T13:35:23.471Z,25.82
2018-07-25T13:37:53.738Z,24.59
2018-07-25T13:40:24.025Z,23.65
2018-07-25T13:42:54.354Z,23.39
2018-07-25T13:45:24.677Z,23.61
2018-07-25T13:47:54.901Z,22.94
2018-07-25T13:50:25.220Z,23.11
2018-07-25T13:52:55.857Z,22.65
2018-07-25T13:55:26.142Z,22.93
2018-07-25T13:57:56.393Z,22.45
2018-07-25T14:00:26.715Z,21.47
2018-07-25T14:02:56.967Z,21.60
2018-07-25T14:05:27.281Z,22.12
2018-07-25T14:07:57.517Z,21.60
2018-07-25T14:10:27.827Z,22.49
2018-07-25T14:12:58.139Z,22.46
2018-07-25T14:15:28.395Z,22.33
2018-07-25T14:17:58.754Z,22.27
2018-07-25T14:20:28.971Z,22.34
2018-07-25T14:22:59.255Z,22.23
2018-07-25T14:25:29.627Z,21.98
2018-07-25T14:28:00.022Z,22.04
2018-07-25T14:30:30.496Z,21.75
2018-07-25T14:33:00.505Z,20.63
2018-07-25T14:35:31.293Z,21.16
2018-07-25T14:38:01.604Z,21.36
2018-07-25T14:40:31.970Z,21.53
2018-07-25T14:43:02.290Z,21.79
2018-07-25T14:45:32.605Z,22.03
2018-07-25T14:48:03.018Z,22.16
2018-07-25T14:50:33.357Z,22.94
2018-07-25T14:53:03.927Z,22.58
2018-07-25T14:55:34.284Z,23.25
2018-07-25T14:58:04.548Z,22.73
2018-07-25T15:00:35.232Z,23.02
2018-07-25T15:03:05.619Z,22.71
2018-07-25T15:05:35.908Z,24.01
2018-07-25T15:08:06.852Z,24.41
2018-07-25T15:10:37.162Z,23.72
2018-07-25T15:13:07.816Z,24.20
2018-07-25T15:15:38.052Z,24.21
2018-07-25T15:18:08.415Z,23.66
2018-07-25T15:20:38.826Z,23.00
2018-07-25T15:23:09.378Z,23.70
2018-07-25T15:25:40.003Z,23.18
2018-07-25T15:28:10.250Z,24.66
2018-07-25T15:30:40.482Z,25.14
2018-07-25T15:33:10.786Z,25.22
2018-07-25T15:35:41.167Z,25.33
2018-07-25T15:38:11.781Z,24.67
2018-07-25T15:40:42.072Z,25.17
2018-07-25T15:43:12.306Z,24.34
2018-07-25T15:45:42.928Z,24.68
2018-07-25T15:48:13.607Z,25.05
2018-07-25T15:50:44.292Z,24.32
2018-07-25T15:53:14.492Z,24.92
2018-07-25T15:55:44.659Z,24.44
2018-07-25T15:58:14.622Z,27.64
2018-07-25T16:00:45.223Z,29.37
2018-07-25T16:03:15.500Z,29.89
2018-07-25T16:05:45.743Z,28.68
2018-07-25T16:08:16.034Z,28.16
2018-07-25T16:10:46.382Z,28.72
2018-07-25T16:13:16.675Z,29.09
2018-07-25T16:15:46.944Z,28.45
2018-07-25T16:18:17.608Z,30.08
2018-07-25T16:20:47.964Z,29.17
2018-07-25T16:23:18.794Z,29.18
2018-07-25T16:25:49.086Z,29.38
2018-07-25T16:28:19.396Z,29.18
2018-07-25T16:30:49.705Z,28.91
2018-07-25T16:33:19.974Z,29.43
2018-07-25T16:35:50.402Z,29.04
2018-07-25T16:38:20.912Z,29.10
2018-07-25T16:40:51.207Z,29.94
2018-07-25T16:43:21.792Z,29.98
2018-07-25T16:45:52.080Z,30.08
2018-07-25T16:48:22.348Z,29.84
2018-07-25T16:50:52.630Z,29.84
2018-07-25T16:53:23.478Z,28.84
2018-07-25T16:55:53.762Z,28.86
2018-07-25T16:58:24.026Z,29.33
2018-07-25T17:00:54.758Z,29.42
2018-07-25T17:03:25.124Z,29.17
2018-07-25T17:05:55.426Z,28.38
2018-07-25T17:08:25.750Z,28.10
2018-07-25T17:10:56.104Z,28.60
2018-07-25T17:13:26.651Z,29.16
2018-07-25T17:15:56.960Z,29.28
2018-07-25T17:18:27.566Z,29.70
2018-07-25T17:20:58.482Z,29.58
2018-07-25T17:23:28.774Z,30.23
2018-07-25T17:25:59.095Z,30.12
2018-07-25T17:28:29.365Z,30.31
2018-07-25T17:30:59.600Z,31.06
2018-07-25T17:33:30.211Z,31.15
2018-07-25T17:36:00.364Z,31.43
2018-07-25T17:38:31.043Z,31.41
2018-07-25T17:41:01.383Z,31.30
2018-07-25T17:43:32.018Z,31.81
2018-07-25T17:46:02.111Z,31.53
2018-07-25T17:48:32.332Z,31.94
2018-07-25T17:51:02.584Z,32.78
2018-07-25T17:53:33.161Z,31.79
2018-07-25T17:56:03.526Z,31.75
2018-07-25T17:58:33.868Z,32.27
2018-07-25T18:01:04.204Z,32.97
2018-07-25T18:03:34.977Z,33.22
2018-07-25T18:06:05.488Z,32.98
2018-07-25T18:08:36.025Z,33.28
2018-07-25T18:11:06.280Z,33.31
2018-07-25T18:13:41.668Z,33.90
2018-07-25T18:16:11.932Z,34.61
2018-07-25T18:18:42.572Z,34.20
2018-07-25T18:21:13.175Z,35.04
2018-07-25T18:23:43.804Z,35.11
2018-07-25T18:26:14.127Z,35.72
2018-07-25T18:28:44.416Z,35.23
2018-07-25T18:31:15.030Z,35.86
2018-07-25T18:33:45.540Z,36.06
2018-07-25T18:36:16.766Z,36.30
2018-07-25T18:38:47.468Z,36.61
2018-07-25T18:41:17.924Z,36.38
2018-07-25T18:43:48.400Z,36.36
2018-07-25T18:46:19.397Z,36.75
2018-07-25T18:48:50.324Z,38.73
2018-07-25T18:51:20.696Z,38.22
2018-07-25T18:53:52.259Z,41.93
2018-07-25T18:56:22.732Z,37.90
2018-07-25T18:58:53.148Z,40.36
2018-07-25T19:01:23.282Z,42.53
2018-07-25T19:03:53.706Z,41.89
2018-07-25T19:06:24.788Z,40.19
2018-07-25T19:08:55.746Z,41.41
2018-07-25T19:11:26.166Z,41.84
2018-07-25T19:14:02.094Z,40.72
2018-07-25T19:16:32.744Z,41.06
2018-07-25T19:19:03.394Z,41.60
2018-07-25T19:21:34.049Z,41.88
2018-07-25T19:24:04.424Z,42.29
2018-07-25T19:26:34.526Z,41.44
2018-07-25T19:29:05.194Z,42.24
2018-07-25T19:31:35.914Z,42.95
2018-07-25T19:34:06.614Z,41.91
2018-07-25T19:36:38.068Z,42.48
2018-07-25T19:39:10.389Z,43.69
2018-07-25T19:41:41.003Z,43.01
2018-07-25T19:44:11.383Z,43.86
2018-07-25T19:46:41.372Z,44.07
2018-07-25T19:49:12.397Z,43.84
2018-07-25T19:51:42.811Z,43.92
2018-07-25T19:54:13.548Z,43.38
2018-07-25T19:56:44.615Z,43.16
2018-07-25T19:59:14.919Z,43.01
2018-07-25T20:01:45.339Z,41.97
2018-07-25T20:04:15.822Z,42.38
2018-07-25T20:06:46.229Z,41.87
2018-07-25T20:09:16.735Z,42.15
2018-07-25T20:11:47.741Z,41.90
2018-07-25T20:14:23.260Z,42.62
2018-07-25T20:16:55.120Z,43.37
2018-07-25T20:19:25.647Z,44.20
2018-07-25T20:21:55.704Z,45.60
2018-07-25T20:24:26.297Z,45.56
2018-07-25T20:26:56.334Z,46.22
2018-07-25T20:29:26.990Z,46.56
2018-07-25T20:32:02.247Z,46.32
2018-07-25T20:34:32.643Z,47.12
2018-07-25T20:37:03.630Z,46.20
2018-07-25T20:39:34.583Z,46.68
2018-07-25T20:42:05.371Z,47.54
2018-07-25T20:44:35.877Z,46.76
2018-07-25T20:47:06.239Z,46.91
2018-07-25T20:49:36.690Z,46.79
2018-07-25T20:52:07.815Z,47.01
2018-07-25T20:54:38.358Z,47.48
2018-07-25T20:57:09.240Z,49.19
2018-07-25T20:59:39.812Z,48.90
2018-07-25T21:02:10.758Z,48.90
2018-07-25T21:04:41.178Z,48.64
2018-07-25T21:07:11.786Z,49.13
2018-07-25T21:09:42.167Z,49.88
2018-07-25T21:12:12.574Z,50.04
2018-07-25T21:14:43.055Z,49.21
2018-07-25T21:17:13.783Z,49.50
2018-07-25T21:19:44.159Z,50.15
2018-07-25T21:22:14.588Z,49.96
2018-07-25T21:24:45.345Z,50.11
2018-07-25T21:27:15.706Z,51.07
2018-07-25T21:29:46.096Z,51.06
2018-07-25T21:32:16.503Z,51.13
2018-07-25T21:34:46.992Z,51.24
2018-07-25T21:37:17.526Z,49.82
2018-07-25T21:39:47.962Z,49.35
2018-07-25T21:42:18.405Z,49.43
2018-07-25T21:44:48.907Z,49.35
2018-07-25T21:47:18.918Z,49.74
2018-07-25T21:49:49.306Z,49.63
2018-07-25T21:52:19.864Z,49.42
2018-07-25T21:54:50.483Z,49.37
2018-07-25T21:57:20.941Z,50.33
2018-07-25T21:59:51.341Z,50.60
2018-07-25T22:02:21.785Z,50.60
2018-07-25T22:04:52.193Z,51.16
2018-07-25T22:07:22.692Z,51.78
2018-07-25T22:09:53.050Z,51.29
2018-07-25T22:12:23.650Z,51.83
2018-07-25T22:14:54.034Z,51.72
2018-07-25T22:17:24.456Z,52.12
2018-07-25T22:19:55.698Z,51.18
2018-07-25T22:22:26.064Z,51.70
2018-07-25T22:24:56.411Z,51.88
2018-07-25T22:27:26.883Z,52.59
2018-07-25T22:29:57.295Z,52.44
2018-07-25T22:32:27.756Z,52.67
2018-07-25T22:34:58.148Z,52.19
2018-07-25T22:37:29.215Z,52.61
2018-07-25T22:39:59.602Z,52.39
2018-07-25T22:42:29.996Z,53.23
2018-07-25T22:45:00.549Z,53.92
2018-07-25T22:47:30.931Z,53.52
2018-07-25T22:50:01.474Z,54.71
2018-07-25T22:52:31.825Z,54.72
2018-07-25T22:55:02.190Z,54.11
2018-07-25T22:57:33.342Z,54.83
2018-07-25T23:00:03.808Z,54.80
2018-07-25T23:02:34.385Z,55.01
2018-07-25T23:05:04.563Z,55.20
2018-07-25T23:07:34.928Z,55.26
2018-07-25T23:10:06.096Z,55.29
2018-07-25T23:15:00.747Z,55.69
2018-07-25T23:17:31.158Z,55.12
2018-07-25T23:20:01.514Z,54.55
2018-07-25T23:22:42.734Z,55.09
2018-07-25T23:25:14.723Z,55.40
2018-07-25T23:27:45.109Z,55.67
2018-07-25T23:30:16.142Z,55.07
2018-07-25T23:32:46.530Z,55.01
2018-07-25T23:35:17.928Z,55.49
2018-07-25T23:37:48.758Z,55.64
2018-07-25T23:40:19.575Z,55.44
2018-07-25T23:42:50.409Z,54.36
2018-07-25T23:45:20.783Z,54.19
2018-07-25T23:47:51.397Z,55.36
2018-07-25T23:50:21.773Z,55.41
2018-07-25T23:52:52.155Z,55.45
2018-07-25T23:55:22.539Z,56.26
2018-07-25T23:57:53.243Z,56.09
